Battle Ground, WA

6:47 AM PDT on June 02, 2015 (GMT -0700)
BATTLE GROUND .5 m North of H.S. | | Change Station
CLOSE
Current Station
Personal Weather Station
Location: Battle Ground, WA
Elevation: 305 ft
Nearby Weather Stations

Elev 305 ft 45.79 °N, 122.54 °W | Updated 37 seconds ago

Mostly Cloudy
Mostly Cloudy
53.3 °F
Feels Like 53.3 °F
N
2.0
Wind Variable Wind from SSE
Gusts 5.0 mph

Today
High -- | Low -- °F
--% Chance of Precip.
Yesterday
High -- | Low -- °F
Precip. -- in
5:23 AM 8:53 PM
Full, 100% visible
Pressure 30.04 in
Visibility 10.0 miles
Clouds Few 1800 ft
Mostly Cloudy 3700 ft
Overcast 5000 ft
Dew Point 52 °F
Humidity 96%
Rainfall 0.00 in
Snow Depth Not available.
UV 0 out of 12
Pollen 4.00 out of 12
Air Quality Not available.
Flu Activity Sporadic
METAR KVUO 021253Z AUTO 00000KT 10SM FEW018 BKN037 OVC050 13/09 A3004 RMK AO2 SLP172 T01280094

More Conditions Fewer Conditions

Pressure 30.04 in
Visibility 10.0 miles
Clouds Few 1800 ft
Mostly Cloudy 3700 ft
Overcast 5000 ft
Dew Point 52 °F
Humidity 96%
Rainfall 0.00 in
Snow Depth Not available.
UV 0 out of 12
Pollen 4.00 out of 12
Air Quality Not available.
Flu Activity Sporadic
METAR KVUO 021253Z AUTO 00000KT 10SM FEW018 BKN037 OVC050 13/09 A3004 RMK AO2 SLP172 T01280094

More Conditions Fewer Conditions

10-Day Weather Forecast

Almanac

Astronomy

Jun. 02, 2015 Rise Set
Actual Time
Civil Twilight
Nautical Twilight
Astronomical Twilight
Moon
Length of Visible Light
Length of Day
Tomorrow will be .
, % of the Moon is Illuminated

Today's Extremes

State Highs State Lows

Community

WunderPhotos

Upload Photos

1,825,914 photos uploaded!

WunderBlogs® & News

Nearby

Air Quality

  Air Quality AQ Index Pollutant
Not available.

Snow Depth

Station Depth Elevation

Earthquake Activity

City Distance Mag. Time & Date
Minimum magnitude displayed is 2.5.

Coastal Water Temperatures

Place Temperature

Stations

Nearby Weather Stations

Station Location Temp. Windchill Dew Point Humidity Wind Precip. Elev Updated Type